sensor_id;sensor_type;location;lat;lon;timestamp;P1;durP1;ratioP1;P2;durP2;ratioP2
41305;SDS011;27051;50.376;19.152;2022-12-29T11:41:10;28.27;;;12.37;;
41305;SDS011;27051;50.376;19.152;2022-12-29T11:43:43;23.52;;;11.38;;
41305;SDS011;27051;50.376;19.152;2022-12-29T11:46:17;26.23;;;12.50;;
41305;SDS011;27051;50.376;19.152;2022-12-29T11:48:54;24.95;;;12.00;;
41305;SDS011;27051;50.376;19.152;2022-12-29T11:51:23;25.92;;;12.93;;
41305;SDS011;27051;50.376;19.152;2022-12-29T11:53:58;27.48;;;14.18;;
41305;SDS011;27051;50.376;19.152;2022-12-29T11:56:35;23.42;;;12.18;;
41305;SDS011;27051;50.376;19.152;2022-12-29T11:59:21;31.20;;;13.45;;
41305;SDS011;27051;50.376;19.152;2022-12-29T12:01:53;28.77;;;14.40;;
41305;SDS011;27051;50.376;19.152;2022-12-29T12:04:28;30.95;;;14.73;;
41305;SDS011;27051;50.376;19.152;2022-12-29T12:07:19;30.57;;;15.65;;
41305;SDS011;27051;50.376;19.152;2022-12-29T12:09:57;30.88;;;13.95;;
41305;SDS011;27051;50.376;19.152;2022-12-29T12:12:29;27.32;;;13.38;;
41305;SDS011;27051;50.376;19.152;2022-12-29T12:15:03;24.77;;;11.18;;
41305;SDS011;27051;50.376;19.152;2022-12-29T12:17:40;24.00;;;11.25;;
41305;SDS011;27051;50.376;19.152;2022-12-29T12:22:53;25.10;;;11.40;;
41305;SDS011;27051;50.376;19.152;2022-12-29T12:25:47;24.12;;;11.28;;
41305;SDS011;27051;50.376;19.152;2022-12-29T12:29:16;48.48;;;23.18;;
41305;SDS011;27051;50.376;19.152;2022-12-29T12:31:27;34.05;;;14.53;;
41305;SDS011;27051;50.376;19.152;2022-12-29T12:37:11;31.77;;;13.85;;
41305;SDS011;27051;50.376;19.152;2022-12-29T12:42:50;32.78;;;14.50;;
41305;SDS011;27051;50.376;19.152;2022-12-29T12:59:57;32.98;;;16.62;;
41305;SDS011;27051;50.376;19.152;2022-12-29T13:05:34;41.55;;;20.50;;
41305;SDS011;27051;50.376;19.152;2022-12-29T13:11:12;32.70;;;14.65;;
41305;SDS011;27051;50.376;19.152;2022-12-29T13:13:59;36.50;;;16.48;;
41305;SDS011;27051;50.376;19.152;2022-12-29T13:16:26;23.42;;;10.50;;
41305;SDS011;27051;50.376;19.152;2022-12-29T13:22:01;26.97;;;11.50;;
41305;SDS011;27051;50.376;19.152;2022-12-29T13:28:06;27.93;;;15.20;;
41305;SDS011;27051;50.376;19.152;2022-12-29T13:36:24;26.80;;;15.38;;
41305;SDS011;27051;50.376;19.152;2022-12-29T13:39:11;27.27;;;14.20;;
41305;SDS011;27051;50.376;19.152;2022-12-29T13:41:50;34.58;;;19.32;;
41305;SDS011;27051;50.376;19.152;2022-12-29T13:44:24;40.75;;;23.02;;
41305;SDS011;27051;50.376;19.152;2022-12-29T13:46:54;64.22;;;39.18;;
41305;SDS011;27051;50.376;19.152;2022-12-29T13:49:26;55.88;;;29.85;;
41305;SDS011;27051;50.376;19.152;2022-12-29T13:54:45;53.30;;;24.50;;
41305;SDS011;27051;50.376;19.152;2022-12-29T13:57:46;32.67;;;16.42;;
41305;SDS011;27051;50.376;19.152;2022-12-29T14:00:23;42.45;;;22.15;;
41305;SDS011;27051;50.376;19.152;2022-12-29T14:03:03;42.25;;;21.77;;
41305;SDS011;27051;50.376;19.152;2022-12-29T14:05:35;48.78;;;22.73;;
41305;SDS011;27051;50.376;19.152;2022-12-29T14:08:05;55.83;;;25.97;;
41305;SDS011;27051;50.376;19.152;2022-12-29T14:10:50;37.58;;;18.17;;
41305;SDS011;27051;50.376;19.152;2022-12-29T14:13:18;43.02;;;20.48;;
41305;SDS011;27051;50.376;19.152;2022-12-29T14:15:52;50.48;;;23.90;;
41305;SDS011;27051;50.376;19.152;2022-12-29T14:18:23;45.92;;;22.35;;
41305;SDS011;27051;50.376;19.152;2022-12-29T14:23:29;51.95;;;24.60;;
41305;SDS011;27051;50.376;19.152;2022-12-29T14:26:12;36.88;;;16.93;;
41305;SDS011;27051;50.376;19.152;2022-12-29T14:31:59;48.17;;;23.92;;
41305;SDS011;27051;50.376;19.152;2022-12-29T14:34:27;50.98;;;25.02;;
41305;SDS011;27051;50.376;19.152;2022-12-29T14:36:56;54.40;;;25.15;;
41305;SDS011;27051;50.376;19.152;2022-12-29T14:47:38;41.00;;;22.40;;
41305;SDS011;27051;50.376;19.152;2022-12-29T14:50:12;36.90;;;19.37;;
41305;SDS011;27051;50.376;19.152;2022-12-29T14:53:02;46.37;;;23.37;;
41305;SDS011;27051;50.376;19.152;2022-12-29T14:58:19;76.70;;;35.75;;
41305;SDS011;27051;50.376;19.152;2022-12-29T15:01:00;85.15;;;39.27;;
41305;SDS011;27051;50.376;19.152;2022-12-29T15:03:38;74.30;;;35.50;;
41305;SDS011;27051;50.376;19.152;2022-12-29T15:06:11;48.90;;;23.40;;
41305;SDS011;27051;50.376;19.152;2022-12-29T15:08:51;67.50;;;32.73;;
41305;SDS011;27051;50.376;19.152;2022-12-29T15:11:23;86.53;;;38.70;;
41305;SDS011;27051;50.376;19.152;2022-12-29T15:13:53;72.03;;;32.83;;
41305;SDS011;27051;50.376;19.152;2022-12-29T15:16:24;74.07;;;33.05;;
41305;SDS011;27051;50.376;19.152;2022-12-29T15:18:57;88.17;;;43.08;;
41305;SDS011;27051;50.376;19.152;2022-12-29T15:21:33;107.75;;;52.45;;
41305;SDS011;27051;50.376;19.152;2022-12-29T15:23:59;76.42;;;39.73;;
41305;SDS011;27051;50.376;19.152;2022-12-29T15:26:40;75.60;;;38.98;;
41305;SDS011;27051;50.376;19.152;2022-12-29T15:32:18;75.90;;;38.92;;
41305;SDS011;27051;50.376;19.152;2022-12-29T15:34:49;45.38;;;22.60;;
41305;SDS011;27051;50.376;19.152;2022-12-29T15:37:23;69.15;;;34.48;;
41305;SDS011;27051;50.376;19.152;2022-12-29T15:39:59;55.98;;;26.68;;
41305;SDS011;27051;50.376;19.152;2022-12-29T15:42:32;54.93;;;24.45;;
41305;SDS011;27051;50.376;19.152;2022-12-29T15:45:20;35.28;;;19.23;;
41305;SDS011;27051;50.376;19.152;2022-12-29T15:47:51;42.05;;;21.27;;
41305;SDS011;27051;50.376;19.152;2022-12-29T15:50:31;40.90;;;21.35;;
41305;SDS011;27051;50.376;19.152;2022-12-29T15:53:01;39.35;;;19.73;;
41305;SDS011;27051;50.376;19.152;2022-12-29T15:55:33;39.23;;;20.27;;
41305;SDS011;27051;50.376;19.152;2022-12-29T15:58:04;111.08;;;63.95;;
41305;SDS011;27051;50.376;19.152;2022-12-29T16:03:02;50.08;;;27.50;;
41305;SDS011;27051;50.376;19.152;2022-12-29T16:05:33;43.40;;;26.40;;
41305;SDS011;27051;50.376;19.152;2022-12-29T16:08:22;40.48;;;20.88;;
41305;SDS011;27051;50.376;19.152;2022-12-29T16:11:26;42.38;;;26.00;;
41305;SDS011;27051;50.376;19.152;2022-12-29T16:13:51;35.33;;;19.20;;
41305;SDS011;27051;50.376;19.152;2022-12-29T16:16:32;31.57;;;17.07;;
41305;SDS011;27051;50.376;19.152;2022-12-29T16:18:58;41.77;;;21.12;;
41305;SDS011;27051;50.376;19.152;2022-12-29T16:21:28;41.58;;;21.27;;
41305;SDS011;27051;50.376;19.152;2022-12-29T16:24:00;33.70;;;16.80;;
41305;SDS011;27051;50.376;19.152;2022-12-29T16:26:33;32.88;;;16.48;;
41305;SDS011;27051;50.376;19.152;2022-12-29T16:29:01;37.73;;;18.52;;
41305;SDS011;27051;50.376;19.152;2022-12-29T16:36:57;50.60;;;24.12;;
41305;SDS011;27051;50.376;19.152;2022-12-29T16:39:28;51.30;;;26.25;;
41305;SDS011;27051;50.376;19.152;2022-12-29T16:42:01;50.43;;;25.23;;
41305;SDS011;27051;50.376;19.152;2022-12-29T16:48:09;44.63;;;19.77;;
41305;SDS011;27051;50.376;19.152;2022-12-29T16:50:33;42.20;;;19.32;;
41305;SDS011;27051;50.376;19.152;2022-12-29T16:53:04;46.37;;;20.40;;
41305;SDS011;27051;50.376;19.152;2022-12-29T16:55:35;33.02;;;16.45;;
41305;SDS011;27051;50.376;19.152;2022-12-29T16:58:01;39.53;;;19.75;;
41305;SDS011;27051;50.376;19.152;2022-12-29T17:00:29;41.92;;;20.85;;
41305;SDS011;27051;50.376;19.152;2022-12-29T17:03:00;46.55;;;21.65;;
41305;SDS011;27051;50.376;19.152;2022-12-29T17:05:29;61.08;;;26.65;;
41305;SDS011;27051;50.376;19.152;2022-12-29T17:07:56;64.32;;;30.57;;
41305;SDS011;27051;50.376;19.152;2022-12-29T17:10:23;78.80;;;34.27;;
41305;SDS011;27051;50.376;19.152;2022-12-29T17:12:49;75.90;;;36.00;;
41305;SDS011;27051;50.376;19.152;2022-12-29T17:15:25;62.70;;;29.35;;
41305;SDS011;27051;50.376;19.152;2022-12-29T17:17:54;43.52;;;21.77;;
41305;SDS011;27051;50.376;19.152;2022-12-29T17:20:25;46.48;;;24.75;;
41305;SDS011;27051;50.376;19.152;2022-12-29T17:22:55;38.05;;;19.95;;
41305;SDS011;27051;50.376;19.152;2022-12-29T17:25:28;46.68;;;23.00;;
41305;SDS011;27051;50.376;19.152;2022-12-29T17:30:50;73.42;;;39.50;;
41305;SDS011;27051;50.376;19.152;2022-12-29T17:33:19;81.97;;;41.70;;
41305;SDS011;27051;50.376;19.152;2022-12-29T17:35:46;60.25;;;28.42;;
41305;SDS011;27051;50.376;19.152;2022-12-29T17:38:20;48.20;;;23.52;;
41305;SDS011;27051;50.376;19.152;2022-12-29T17:40:50;40.97;;;21.40;;
41305;SDS011;27051;50.376;19.152;2022-12-29T17:43:17;38.48;;;21.65;;
41305;SDS011;27051;50.376;19.152;2022-12-29T17:45:46;42.10;;;21.70;;
41305;SDS011;27051;50.376;19.152;2022-12-29T17:48:22;38.38;;;21.40;;
41305;SDS011;27051;50.376;19.152;2022-12-29T17:50:50;42.90;;;21.70;;
41305;SDS011;27051;50.376;19.152;2022-12-29T17:53:20;37.42;;;18.98;;
41305;SDS011;27051;50.376;19.152;2022-12-29T17:55:50;37.78;;;19.82;;
41305;SDS011;27051;50.376;19.152;2022-12-29T17:58:18;38.85;;;19.45;;
41305;SDS011;27051;50.376;19.152;2022-12-29T18:00:57;41.35;;;20.52;;
41305;SDS011;27051;50.376;19.152;2022-12-29T18:03:27;38.35;;;19.87;;
41305;SDS011;27051;50.376;19.152;2022-12-29T18:05:59;41.73;;;19.90;;
41305;SDS011;27051;50.376;19.152;2022-12-29T18:08:35;42.55;;;22.77;;
41305;SDS011;27051;50.376;19.152;2022-12-29T18:11:17;42.85;;;21.02;;
41305;SDS011;27051;50.376;19.152;2022-12-29T18:13:46;47.62;;;25.57;;
41305;SDS011;27051;50.376;19.152;2022-12-29T18:16:15;48.45;;;26.48;;
41305;SDS011;27051;50.376;19.152;2022-12-29T18:18:48;41.42;;;21.70;;
41305;SDS011;27051;50.376;19.152;2022-12-29T18:21:17;39.80;;;20.50;;
41305;SDS011;27051;50.376;19.152;2022-12-29T18:23:52;39.67;;;20.77;;
41305;SDS011;27051;50.376;19.152;2022-12-29T18:26:20;39.75;;;22.05;;
41305;SDS011;27051;50.376;19.152;2022-12-29T18:28:49;44.13;;;21.68;;
41305;SDS011;27051;50.376;19.152;2022-12-29T18:31:23;41.35;;;21.57;;
41305;SDS011;27051;50.376;19.152;2022-12-29T18:33:55;40.28;;;21.40;;
41305;SDS011;27051;50.376;19.152;2022-12-29T18:36:24;43.65;;;23.30;;
41305;SDS011;27051;50.376;19.152;2022-12-29T18:38:51;49.77;;;25.00;;
41305;SDS011;27051;50.376;19.152;2022-12-29T18:41:19;52.50;;;26.12;;
41305;SDS011;27051;50.376;19.152;2022-12-29T18:43:49;47.25;;;23.85;;
41305;SDS011;27051;50.376;19.152;2022-12-29T18:46:16;40.17;;;20.25;;
41305;SDS011;27051;50.376;19.152;2022-12-29T18:48:43;43.60;;;20.92;;
41305;SDS011;27051;50.376;19.152;2022-12-29T18:51:14;40.83;;;21.65;;
41305;SDS011;27051;50.376;19.152;2022-12-29T18:53:47;38.55;;;17.95;;
41305;SDS011;27051;50.376;19.152;2022-12-29T18:56:14;39.00;;;19.62;;
41305;SDS011;27051;50.376;19.152;2022-12-29T18:58:41;37.88;;;20.75;;
41305;SDS011;27051;50.376;19.152;2022-12-29T19:01:18;40.90;;;20.80;;
41305;SDS011;27051;50.376;19.152;2022-12-29T19:03:45;39.40;;;21.05;;
41305;SDS011;27051;50.376;19.152;2022-12-29T19:06:13;40.52;;;21.20;;
41305;SDS011;27051;50.376;19.152;2022-12-29T19:08:40;45.95;;;24.07;;
41305;SDS011;27051;50.376;19.152;2022-12-29T19:11:07;45.45;;;22.20;;
41305;SDS011;27051;50.376;19.152;2022-12-29T19:13:33;37.95;;;19.98;;
41305;SDS011;27051;50.376;19.152;2022-12-29T19:16:00;38.28;;;20.25;;
41305;SDS011;27051;50.376;19.152;2022-12-29T19:18:27;37.48;;;20.17;;
41305;SDS011;27051;50.376;19.152;2022-12-29T19:20:54;35.58;;;19.52;;
41305;SDS011;27051;50.376;19.152;2022-12-29T19:23:22;37.90;;;17.42;;
41305;SDS011;27051;50.376;19.152;2022-12-29T19:25:56;34.45;;;17.82;;
41305;SDS011;27051;50.376;19.152;2022-12-29T19:28:25;34.08;;;19.30;;
41305;SDS011;27051;50.376;19.152;2022-12-29T19:30:51;37.10;;;19.95;;
41305;SDS011;27051;50.376;19.152;2022-12-29T19:33:20;41.77;;;20.95;;
41305;SDS011;27051;50.376;19.152;2022-12-29T19:35:48;37.45;;;20.17;;
41305;SDS011;27051;50.376;19.152;2022-12-29T19:38:15;38.00;;;19.92;;
41305;SDS011;27051;50.376;19.152;2022-12-29T19:40:43;39.30;;;21.27;;
41305;SDS011;27051;50.376;19.152;2022-12-29T19:43:15;44.00;;;20.90;;
41305;SDS011;27051;50.376;19.152;2022-12-29T19:45:43;42.53;;;20.65;;
41305;SDS011;27051;50.376;19.152;2022-12-29T19:48:12;39.10;;;21.07;;
41305;SDS011;27051;50.376;19.152;2022-12-29T19:50:44;40.40;;;19.55;;
41305;SDS011;27051;50.376;19.152;2022-12-29T19:53:11;36.73;;;20.02;;
41305;SDS011;27051;50.376;19.152;2022-12-29T19:55:42;35.25;;;18.30;;
41305;SDS011;27051;50.376;19.152;2022-12-29T19:58:11;34.73;;;18.57;;
41305;SDS011;27051;50.376;19.152;2022-12-29T20:00:39;34.83;;;17.45;;
41305;SDS011;27051;50.376;19.152;2022-12-29T20:03:08;37.83;;;18.95;;
41305;SDS011;27051;50.376;19.152;2022-12-29T20:05:36;48.20;;;23.18;;
41305;SDS011;27051;50.376;19.152;2022-12-29T20:08:04;36.08;;;16.80;;
41305;SDS011;27051;50.376;19.152;2022-12-29T20:10:30;35.08;;;17.50;;
41305;SDS011;27051;50.376;19.152;2022-12-29T20:12:57;35.73;;;17.48;;
41305;SDS011;27051;50.376;19.152;2022-12-29T20:15:24;30.45;;;14.15;;
41305;SDS011;27051;50.376;19.152;2022-12-29T20:17:50;40.78;;;18.67;;
41305;SDS011;27051;50.376;19.152;2022-12-29T20:20:17;28.55;;;14.80;;
41305;SDS011;27051;50.376;19.152;2022-12-29T20:22:44;37.95;;;16.75;;
41305;SDS011;27051;50.376;19.152;2022-12-29T20:25:10;33.13;;;16.25;;
41305;SDS011;27051;50.376;19.152;2022-12-29T20:27:37;37.78;;;17.92;;
41305;SDS011;27051;50.376;19.152;2022-12-29T20:30:04;37.15;;;18.60;;
41305;SDS011;27051;50.376;19.152;2022-12-29T20:32:31;35.55;;;18.00;;
41305;SDS011;27051;50.376;19.152;2022-12-29T20:34:58;34.05;;;17.73;;
41305;SDS011;27051;50.376;19.152;2022-12-29T20:37:25;35.10;;;16.85;;
41305;SDS011;27051;50.376;19.152;2022-12-29T20:39:51;37.50;;;17.48;;
41305;SDS011;27051;50.376;19.152;2022-12-29T20:42:18;35.85;;;15.72;;
41305;SDS011;27051;50.376;19.152;2022-12-29T20:44:45;32.23;;;15.45;;
41305;SDS011;27051;50.376;19.152;2022-12-29T20:47:12;31.97;;;15.98;;
41305;SDS011;27051;50.376;19.152;2022-12-29T20:49:38;31.48;;;15.30;;
41305;SDS011;27051;50.376;19.152;2022-12-29T20:52:05;36.17;;;17.90;;
41305;SDS011;27051;50.376;19.152;2022-12-29T20:54:32;36.30;;;18.02;;
41305;SDS011;27051;50.376;19.152;2022-12-29T20:56:58;47.23;;;21.25;;
41305;SDS011;27051;50.376;19.152;2022-12-29T20:59:25;46.85;;;22.50;;
41305;SDS011;27051;50.376;19.152;2022-12-29T21:01:52;38.15;;;17.45;;
41305;SDS011;27051;50.376;19.152;2022-12-29T21:04:19;32.20;;;15.00;;
41305;SDS011;27051;50.376;19.152;2022-12-29T21:06:46;31.37;;;14.63;;
41305;SDS011;27051;50.376;19.152;2022-12-29T21:09:13;36.08;;;16.70;;
41305;SDS011;27051;50.376;19.152;2022-12-29T21:11:39;32.30;;;15.15;;
41305;SDS011;27051;50.376;19.152;2022-12-29T21:14:06;30.82;;;14.18;;
41305;SDS011;27051;50.376;19.152;2022-12-29T21:16:33;30.95;;;15.60;;
41305;SDS011;27051;50.376;19.152;2022-12-29T21:19:00;36.95;;;15.30;;
41305;SDS011;27051;50.376;19.152;2022-12-29T21:21:27;34.53;;;14.65;;
41305;SDS011;27051;50.376;19.152;2022-12-29T21:23:53;34.18;;;15.48;;
41305;SDS011;27051;50.376;19.152;2022-12-29T21:26:21;31.33;;;14.28;;
41305;SDS011;27051;50.376;19.152;2022-12-29T21:28:49;29.40;;;13.40;;
41305;SDS011;27051;50.376;19.152;2022-12-29T21:31:32;26.82;;;12.50;;
41305;SDS011;27051;50.376;19.152;2022-12-29T21:34:02;28.15;;;12.65;;
41305;SDS011;27051;50.376;19.152;2022-12-29T21:36:30;35.28;;;15.05;;
41305;SDS011;27051;50.376;19.152;2022-12-29T21:38:58;33.28;;;14.63;;
41305;SDS011;27051;50.376;19.152;2022-12-29T21:41:25;39.42;;;16.07;;
41305;SDS011;27051;50.376;19.152;2022-12-29T21:43:52;38.70;;;15.98;;
41305;SDS011;27051;50.376;19.152;2022-12-29T21:46:21;37.93;;;17.90;;
41305;SDS011;27051;50.376;19.152;2022-12-29T21:48:48;44.67;;;19.27;;
41305;SDS011;27051;50.376;19.152;2022-12-29T21:51:14;48.80;;;21.65;;
41305;SDS011;27051;50.376;19.152;2022-12-29T21:53:42;45.23;;;17.87;;
41305;SDS011;27051;50.376;19.152;2022-12-29T21:58:44;45.67;;;22.00;;
41305;SDS011;27051;50.376;19.152;2022-12-29T22:01:13;49.48;;;24.45;;
41305;SDS011;27051;50.376;19.152;2022-12-29T22:03:40;50.90;;;25.50;;
41305;SDS011;27051;50.376;19.152;2022-12-29T22:06:10;39.60;;;18.27;;
41305;SDS011;27051;50.376;19.152;2022-12-29T22:08:37;39.48;;;18.17;;
41305;SDS011;27051;50.376;19.152;2022-12-29T22:11:05;42.35;;;20.85;;
41305;SDS011;27051;50.376;19.152;2022-12-29T22:13:34;33.02;;;14.05;;
41305;SDS011;27051;50.376;19.152;2022-12-29T22:16:07;26.07;;;13.55;;
41305;SDS011;27051;50.376;19.152;2022-12-29T22:18:39;31.73;;;17.92;;
41305;SDS011;27051;50.376;19.152;2022-12-29T22:21:07;31.12;;;14.65;;
41305;SDS011;27051;50.376;19.152;2022-12-29T22:23:35;29.70;;;13.85;;
41305;SDS011;27051;50.376;19.152;2022-12-29T22:26:03;37.08;;;17.50;;
41305;SDS011;27051;50.376;19.152;2022-12-29T22:28:36;37.90;;;16.57;;
41305;SDS011;27051;50.376;19.152;2022-12-29T22:31:05;29.42;;;14.30;;
41305;SDS011;27051;50.376;19.152;2022-12-29T22:33:35;26.97;;;13.15;;
41305;SDS011;27051;50.376;19.152;2022-12-29T22:36:02;28.10;;;12.75;;
41305;SDS011;27051;50.376;19.152;2022-12-29T22:38:29;23.77;;;13.08;;
41305;SDS011;27051;50.376;19.152;2022-12-29T22:40:59;26.62;;;12.53;;
41305;SDS011;27051;50.376;19.152;2022-12-29T22:43:25;27.50;;;12.53;;
41305;SDS011;27051;50.376;19.152;2022-12-29T22:45:52;31.23;;;14.70;;
41305;SDS011;27051;50.376;19.152;2022-12-29T22:48:18;24.63;;;11.73;;
41305;SDS011;27051;50.376;19.152;2022-12-29T22:50:45;28.52;;;13.93;;
41305;SDS011;27051;50.376;19.152;2022-12-29T22:53:12;25.77;;;12.78;;
41305;SDS011;27051;50.376;19.152;2022-12-29T22:55:38;27.22;;;11.60;;
41305;SDS011;27051;50.376;19.152;2022-12-29T22:58:05;24.05;;;12.03;;
41305;SDS011;27051;50.376;19.152;2022-12-29T23:00:32;23.52;;;11.57;;
41305;SDS011;27051;50.376;19.152;2022-12-29T23:02:58;22.35;;;10.70;;
41305;SDS011;27051;50.376;19.152;2022-12-29T23:05:25;24.72;;;11.88;;
41305;SDS011;27051;50.376;19.152;2022-12-29T23:07:52;24.57;;;12.30;;
41305;SDS011;27051;50.376;19.152;2022-12-29T23:10:19;24.12;;;11.90;;
41305;SDS011;27051;50.376;19.152;2022-12-29T23:12:45;22.98;;;11.45;;
41305;SDS011;27051;50.376;19.152;2022-12-29T23:15:12;26.70;;;13.13;;
41305;SDS011;27051;50.376;19.152;2022-12-29T23:17:40;27.10;;;13.78;;
41305;SDS011;27051;50.376;19.152;2022-12-29T23:20:06;30.92;;;14.60;;
41305;SDS011;27051;50.376;19.152;2022-12-29T23:22:34;31.07;;;13.98;;
41305;SDS011;27051;50.376;19.152;2022-12-29T23:25:01;31.20;;;14.83;;
41305;SDS011;27051;50.376;19.152;2022-12-29T23:27:27;27.55;;;13.58;;
41305;SDS011;27051;50.376;19.152;2022-12-29T23:29:54;28.40;;;13.00;;
41305;SDS011;27051;50.376;19.152;2022-12-29T23:32:21;24.50;;;12.40;;
41305;SDS011;27051;50.376;19.152;2022-12-29T23:34:47;25.20;;;11.97;;
41305;SDS011;27051;50.376;19.152;2022-12-29T23:37:14;28.05;;;12.35;;
41305;SDS011;27051;50.376;19.152;2022-12-29T23:39:41;21.52;;;10.93;;
41305;SDS011;27051;50.376;19.152;2022-12-29T23:42:08;23.85;;;11.70;;
41305;SDS011;27051;50.376;19.152;2022-12-29T23:44:34;25.68;;;11.97;;
41305;SDS011;27051;50.376;19.152;2022-12-29T23:47:01;25.70;;;11.45;;
41305;SDS011;27051;50.376;19.152;2022-12-29T23:49:34;23.18;;;11.00;;
41305;SDS011;27051;50.376;19.152;2022-12-29T23:52:01;22.40;;;10.95;;
41305;SDS011;27051;50.376;19.152;2022-12-29T23:54:28;25.52;;;13.25;;
41305;SDS011;27051;50.376;19.152;2022-12-29T23:56:54;23.80;;;11.28;;
41305;SDS011;27051;50.376;19.152;2022-12-29T23:59:21;22.65;;;10.80;;
